Terminal Aerodrome Forecast
Issued by NWS Wakefield, VA

Home | Current Version | Previous Version | Text Only | Print | Product List | Glossary On
Versions: 1 2 3 4 5 6 7 8 9 10 11 12 13 14 15 16 17 18 19 20 21
012
FTUS41 KAKQ 051739
TAFRIC
TAF
KRIC 051739Z 0518/0618 35006KT P6SM BKN008
     FM051900 36006KT P6SM SCT008 SCT040
     FM052000 01005KT P6SM SCT250
     FM060300 03003KT P6SM BKN200
     FM061100 06004KT 5SM -RA BR SCT025 OVC040
     FM061300 08006KT 2SM RA BR OVC025
     FM061600 09007KT 1SM RA BR OVC010=

USA.gov is the U.S. government's official web portal to all federal, state and local government web resources and services.